createdAt,value
2019-03-30T00:02:03.361Z,23.70
2019-03-30T00:04:30.076Z,23.70
2019-03-30T00:06:56.675Z,23.70
2019-03-30T00:09:23.276Z,23.70
2019-03-30T00:11:49.923Z,23.60
2019-03-30T00:14:16.532Z,23.60
2019-03-30T00:16:43.135Z,23.60
2019-03-30T00:19:09.786Z,23.50
2019-03-30T00:21:36.392Z,23.50
2019-03-30T00:24:02.988Z,23.50
2019-03-30T00:26:29.652Z,23.50
2019-03-30T00:28:56.326Z,23.40
2019-03-30T00:31:22.938Z,23.40
2019-03-30T00:33:49.681Z,23.40
2019-03-30T00:36:16.283Z,23.30
2019-03-30T00:38:42.877Z,23.30
2019-03-30T00:41:09.526Z,23.30
2019-03-30T00:43:36.156Z,23.30
2019-03-30T00:46:02.812Z,23.20
2019-03-30T00:48:29.572Z,23.20
2019-03-30T00:50:56.204Z,23.20
2019-03-30T00:53:22.901Z,23.20
2019-03-30T00:55:49.614Z,23.20
2019-03-30T00:58:16.315Z,23.20
2019-03-30T01:00:43.041Z,23.20
2019-03-30T01:03:09.800Z,23.20
2019-03-30T01:05:36.399Z,23.10
2019-03-30T01:08:03.028Z,23.10
2019-03-30T01:10:29.769Z,23.10
2019-03-30T01:12:56.452Z,23.10
2019-03-30T01:15:23.197Z,23.10
2019-03-30T01:17:49.940Z,23.10
2019-03-30T01:20:16.563Z,23.00
2019-03-30T01:22:43.265Z,23.00
2019-03-30T01:25:10.031Z,23.10
2019-03-30T01:27:36.720Z,23.00
2019-03-30T01:30:03.470Z,23.00
2019-03-30T01:32:30.235Z,23.00
2019-03-30T01:34:56.965Z,23.00
2019-03-30T01:37:23.749Z,23.00
2019-03-30T01:39:50.525Z,23.00
2019-03-30T01:42:17.168Z,22.90
2019-03-30T01:44:43.880Z,22.90
2019-03-30T01:47:10.561Z,22.90
2019-03-30T01:49:37.305Z,22.90
2019-03-30T01:52:04.033Z,22.90
2019-03-30T01:54:30.834Z,22.90
2019-03-30T01:56:57.573Z,22.80
2019-03-30T01:59:24.273Z,22.80
2019-03-30T02:01:51.080Z,22.80
2019-03-30T02:04:17.802Z,22.80
2019-03-30T02:06:44.525Z,22.80
2019-03-30T02:09:11.293Z,22.70
2019-03-30T02:11:37.987Z,22.70
2019-03-30T02:14:04.683Z,22.70
2019-03-30T02:16:31.566Z,22.60
2019-03-30T02:18:58.264Z,22.60
2019-03-30T02:21:24.986Z,22.60
2019-03-30T02:23:52.222Z,22.60
2019-03-30T02:26:18.943Z,22.60
2019-03-30T02:28:45.647Z,22.60
2019-03-30T02:31:12.487Z,22.50
2019-03-30T02:33:39.229Z,22.50
2019-03-30T02:36:05.936Z,22.50
2019-03-30T02:38:32.735Z,22.50
2019-03-30T02:40:59.422Z,22.50
2019-03-30T02:43:26.157Z,22.40
2019-03-30T02:45:52.902Z,22.40
2019-03-30T02:48:19.547Z,22.40
2019-03-30T02:50:49.866Z,22.40
2019-03-30T02:53:14.665Z,22.40
2019-03-30T02:55:41.361Z,22.40
2019-03-30T02:58:08.089Z,22.40
2019-03-30T03:00:34.853Z,22.40
2019-03-30T03:03:01.484Z,22.30
2019-03-30T03:05:28.222Z,22.30
2019-03-30T03:07:54.976Z,22.30
2019-03-30T03:10:21.676Z,22.30
2019-03-30T03:12:48.432Z,22.30
2019-03-30T03:15:15.362Z,22.30
2019-03-30T03:17:42.018Z,22.30
2019-03-30T03:20:08.742Z,22.30
2019-03-30T03:22:35.527Z,22.30
2019-03-30T03:25:02.247Z,22.20
2019-03-30T03:27:28.976Z,22.20
2019-03-30T03:29:55.780Z,22.20
2019-03-30T03:32:22.484Z,22.20
2019-03-30T03:34:49.225Z,22.20
2019-03-30T03:37:15.996Z,22.20
2019-03-30T03:39:42.766Z,22.10
2019-03-30T03:42:09.503Z,22.10
2019-03-30T03:44:36.841Z,22.10
2019-03-30T03:47:03.556Z,22.10
2019-03-30T03:49:30.250Z,22.10
2019-03-30T03:51:57.031Z,22.10
2019-03-30T03:54:23.752Z,22.10
2019-03-30T03:56:50.440Z,22.00
2019-03-30T03:59:17.258Z,22.00
2019-03-30T04:01:43.943Z,22.00
2019-03-30T04:04:10.670Z,22.00
2019-03-30T04:06:37.459Z,22.00
2019-03-30T04:09:04.198Z,22.00
2019-03-30T04:11:30.896Z,21.90
2019-03-30T04:13:57.661Z,21.90
2019-03-30T04:16:24.390Z,21.90
2019-03-30T04:18:51.128Z,21.90
2019-03-30T04:21:17.901Z,21.90
2019-03-30T04:23:44.544Z,21.90
2019-03-30T04:26:11.229Z,21.80
2019-03-30T04:28:38.108Z,21.90
2019-03-30T04:31:04.807Z,21.90
2019-03-30T04:33:31.508Z,21.90
2019-03-30T04:35:58.298Z,21.90
2019-03-30T04:38:25.021Z,22.00
2019-03-30T04:40:51.740Z,21.90
2019-03-30T04:43:18.546Z,21.90
2019-03-30T04:45:45.230Z,22.00
2019-03-30T04:48:11.956Z,21.90
2019-03-30T04:50:38.750Z,22.00
2019-03-30T04:53:05.462Z,22.00
2019-03-30T04:55:32.192Z,22.00
2019-03-30T04:57:58.953Z,22.00
2019-03-30T05:00:25.658Z,22.00
2019-03-30T05:02:52.390Z,22.00
2019-03-30T05:05:19.189Z,22.10
2019-03-30T05:07:45.877Z,22.20
2019-03-30T05:10:12.520Z,22.20
2019-03-30T05:12:39.320Z,22.20
2019-03-30T05:15:06.018Z,22.30
2019-03-30T05:17:46.317Z,22.30
2019-03-30T05:20:01.196Z,22.40
2019-03-30T05:22:27.913Z,22.40
2019-03-30T05:24:54.633Z,22.50
2019-03-30T05:27:21.446Z,22.60
2019-03-30T05:29:48.121Z,22.70
2019-03-30T05:32:14.781Z,22.80
2019-03-30T05:34:41.541Z,22.90
2019-03-30T05:37:08.237Z,22.90
2019-03-30T05:39:34.975Z,23.00
2019-03-30T05:42:01.880Z,23.10
2019-03-30T05:44:28.613Z,23.30
2019-03-30T05:46:55.340Z,23.40
2019-03-30T05:49:22.066Z,23.50
2019-03-30T05:51:48.837Z,23.70
2019-03-30T05:54:15.671Z,23.90
2019-03-30T05:56:42.513Z,24.20
2019-03-30T05:59:09.259Z,24.40
2019-03-30T06:01:35.976Z,24.60
2019-03-30T06:04:02.721Z,24.90
2019-03-30T06:06:29.360Z,25.20
2019-03-30T06:08:56.056Z,25.30
2019-03-30T06:11:22.795Z,25.50
2019-03-30T06:13:49.476Z,25.70
2019-03-30T06:16:16.177Z,25.80
2019-03-30T06:18:43.145Z,26.10
2019-03-30T06:21:09.838Z,26.30
2019-03-30T06:23:36.579Z,26.50
2019-03-30T06:26:03.333Z,26.70
2019-03-30T06:28:30.063Z,27.00
2019-03-30T06:30:56.808Z,27.20
2019-03-30T06:33:23.595Z,27.40
2019-03-30T06:35:50.278Z,27.60
2019-03-30T06:38:16.979Z,27.80
2019-03-30T06:40:43.777Z,28.00
2019-03-30T06:43:10.482Z,28.10
2019-03-30T06:45:37.214Z,28.40
2019-03-30T06:48:03.970Z,28.60
2019-03-30T06:50:30.683Z,29.00
2019-03-30T06:52:58.851Z,29.20
2019-03-30T06:55:25.791Z,29.50
2019-03-30T06:57:52.527Z,29.70
2019-03-30T07:00:19.326Z,30.10
2019-03-30T07:02:46.118Z,30.30
2019-03-30T07:05:12.857Z,30.50
2019-03-30T07:07:39.688Z,30.60
2019-03-30T07:10:06.541Z,30.60
2019-03-30T07:12:33.484Z,30.90
2019-03-30T07:15:00.392Z,31.00
2019-03-30T07:17:27.149Z,31.20
2019-03-30T07:19:53.777Z,31.20
2019-03-30T07:22:20.528Z,31.40
2019-03-30T07:24:47.320Z,31.50
2019-03-30T07:27:14.021Z,31.50
2019-03-30T07:29:40.728Z,31.50
2019-03-30T07:32:07.748Z,31.50
2019-03-30T07:34:34.485Z,31.70
2019-03-30T07:37:01.217Z,32.00
2019-03-30T07:39:28.015Z,32.30
2019-03-30T07:41:54.657Z,32.60
2019-03-30T07:44:21.339Z,32.70
2019-03-30T07:46:48.158Z,32.70
2019-03-30T07:49:14.851Z,32.80
2019-03-30T07:51:41.559Z,32.90
2019-03-30T07:54:08.323Z,33.00
2019-03-30T07:56:35.025Z,33.10
2019-03-30T07:59:01.770Z,33.10
2019-03-30T08:01:28.556Z,33.20
2019-03-30T08:03:55.253Z,33.30
2019-03-30T08:06:22.008Z,33.40
2019-03-30T08:08:48.809Z,33.20
2019-03-30T08:11:15.549Z,33.30
2019-03-30T08:13:42.335Z,33.40
2019-03-30T08:16:09.145Z,33.50
2019-03-30T08:18:35.814Z,33.30
2019-03-30T08:21:02.522Z,33.10
2019-03-30T08:23:39.793Z,32.80
2019-03-30T08:25:57.657Z,32.70
2019-03-30T08:28:24.393Z,32.60
2019-03-30T08:30:51.178Z,32.50
2019-03-30T08:33:17.930Z,32.40
2019-03-30T08:35:44.690Z,32.60
2019-03-30T08:38:11.452Z,32.60
2019-03-30T08:40:38.191Z,32.70
2019-03-30T08:43:04.894Z,33.30
2019-03-30T08:45:31.670Z,34.00
2019-03-30T08:47:58.421Z,34.70
2019-03-30T08:50:25.171Z,35.50
2019-03-30T08:52:51.944Z,36.10
2019-03-30T08:55:18.689Z,36.80
2019-03-30T08:57:45.373Z,37.30
2019-03-30T09:00:12.091Z,37.80
2019-03-30T09:02:38.809Z,38.20
2019-03-30T09:05:05.517Z,38.60
2019-03-30T09:07:32.310Z,38.90
2019-03-30T09:09:59.028Z,39.40
2019-03-30T09:12:25.756Z,39.70
2019-03-30T09:14:52.517Z,39.90
2019-03-30T09:17:19.218Z,40.20
2019-03-30T09:19:45.872Z,40.20
2019-03-30T09:22:12.966Z,40.40
2019-03-30T09:24:39.711Z,40.60
2019-03-30T09:27:06.444Z,40.70
2019-03-30T09:29:33.191Z,41.10
2019-03-30T09:32:13.209Z,41.30
2019-03-30T09:34:28.169Z,41.50
2019-03-30T09:36:55.077Z,41.70
2019-03-30T09:39:21.745Z,42.00
2019-03-30T09:41:48.466Z,42.00
2019-03-30T09:44:15.254Z,42.00
2019-03-30T09:46:41.999Z,42.10
2019-03-30T09:49:08.702Z,42.20
2019-03-30T09:51:35.497Z,42.30
2019-03-30T09:54:02.196Z,42.20
2019-03-30T09:56:28.927Z,42.20
2019-03-30T09:58:55.674Z,41.80
2019-03-30T10:01:22.379Z,41.80
2019-03-30T10:03:49.075Z,41.80
2019-03-30T10:06:15.875Z,41.60
2019-03-30T10:08:42.609Z,41.70
2019-03-30T10:11:09.338Z,41.60
2019-03-30T10:13:36.107Z,41.80
2019-03-30T10:16:02.817Z,42.00
2019-03-30T10:18:29.540Z,42.30
2019-03-30T10:20:56.334Z,42.60
2019-03-30T10:23:23.061Z,42.20
2019-03-30T10:25:49.795Z,42.40
2019-03-30T10:28:16.552Z,42.70
2019-03-30T10:30:43.276Z,42.90
2019-03-30T10:33:09.974Z,42.90
2019-03-30T10:35:36.656Z,43.40
2019-03-30T10:38:03.387Z,43.80
2019-03-30T10:40:30.094Z,44.40
2019-03-30T10:42:56.865Z,45.00
2019-03-30T10:45:23.492Z,45.50
2019-03-30T10:47:50.195Z,46.00
2019-03-30T10:50:16.877Z,46.30
2019-03-30T10:52:43.498Z,46.80
2019-03-30T10:55:10.230Z,47.10
2019-03-30T10:57:36.978Z,47.30
2019-03-30T11:00:03.602Z,47.70
2019-03-30T11:02:30.339Z,48.10
2019-03-30T11:04:57.431Z,48.40
2019-03-30T11:07:24.152Z,48.60
2019-03-30T11:09:50.876Z,48.40
2019-03-30T11:12:17.645Z,48.60
2019-03-30T11:14:44.341Z,48.70
2019-03-30T11:17:11.081Z,48.30
2019-03-30T11:19:37.854Z,48.50
2019-03-30T11:22:04.509Z,48.80
2019-03-30T11:24:31.218Z,49.00
2019-03-30T11:26:57.990Z,49.20
2019-03-30T11:29:24.615Z,49.70
2019-03-30T22:51:42.192Z,26.80
2019-03-30T22:54:09.002Z,26.00
2019-03-30T22:56:35.726Z,25.80
2019-03-30T22:59:02.447Z,25.70
2019-03-30T23:01:29.217Z,25.60
2019-03-30T23:03:55.986Z,25.60
2019-03-30T23:06:23.113Z,25.50
2019-03-30T23:08:49.832Z,25.40
2019-03-30T23:11:16.687Z,25.40
2019-03-30T23:13:43.487Z,25.40
2019-03-30T23:16:10.276Z,25.30
2019-03-30T23:18:36.996Z,25.30
2019-03-30T23:21:03.836Z,25.20
2019-03-30T23:23:30.587Z,25.20
2019-03-30T23:25:57.330Z,25.20
2019-03-30T23:28:24.220Z,25.10
2019-03-30T23:30:54.398Z,25.10
2019-03-30T23:33:19.352Z,25.00
2019-03-30T23:35:46.070Z,25.00
2019-03-30T23:38:14.136Z,24.90
2019-03-30T23:40:41.060Z,24.90
2019-03-30T23:43:07.834Z,24.90
2019-03-30T23:45:34.822Z,24.90
2019-03-30T23:48:01.483Z,24.90
2019-03-30T23:50:30.251Z,24.90
2019-03-30T23:52:56.965Z,24.80
2019-03-30T23:55:24.055Z,24.80
2019-03-30T23:57:50.735Z,24.70
